Time;durP1;ratioP1;P1;durP2;ratioP2;P2;SDS_P1;SDS_P2;PMS_P1;PMS_P2;Temp;Humidity;BMP_temperature;BMP_pressure;BME280_temperature;BME280_humidity;BME280_pressure;Samples;Min_cycle;Max_cycle;Signal;HPM_P1;HPM_P2
2021/01/26 00:01:04;;;;;;;17.80;1.40;;;3.80;99.90;;;;;;4977697;28;20078;-77
2021/01/26 00:03:30;;;;;;;11.23;1.77;;;3.80;99.90;;;;;;4973263;28;20046;-78
2021/01/26 00:05:57;;;;;;;18.65;2.10;;;3.80;99.90;;;;;;4977616;28;20046;-78
2021/01/26 00:08:23;;;;;;;11.40;1.60;;;3.80;99.90;;;;;;4974333;28;20046;-78
2021/01/26 00:10:50;;;;;;;15.07;1.35;;;3.90;99.90;;;;;;4968167;28;20054;-78
2021/01/26 00:13:19;;;;;;;6.65;0.57;;;3.90;99.90;;;;;;4977923;28;20552;-78
2021/01/26 00:15:46;;;;;;;6.55;1.10;;;3.90;99.90;;;;;;4980620;28;20209;-78
2021/01/26 00:18:13;;;;;;;9.25;1.13;;;3.80;99.90;;;;;;4992797;28;20061;-78
2021/01/26 00:20:39;;;;;;;12.05;1.02;;;3.80;99.90;;;;;;4977708;28;20054;-78
2021/01/26 00:23:07;;;;;;;10.25;1.17;;;3.80;99.90;;;;;;4994434;28;20080;-78
2021/01/26 00:25:36;;;;;;;8.05;1.20;;;3.80;99.90;;;;;;4976469;28;20050;-78
2021/01/26 00:28:03;;;;;;;11.10;1.15;;;3.80;99.90;;;;;;4968871;28;20487;-77
2021/01/26 00:30:32;;;;;;;11.68;1.02;;;3.90;99.90;;;;;;4979548;28;20050;-77
2021/01/26 00:33:00;;;;;;;13.80;1.85;;;3.90;99.90;;;;;;4980003;28;20050;-78
2021/01/26 00:35:29;;;;;;;7.75;1.70;;;3.90;99.90;;;;;;4980303;28;20050;-77
2021/01/26 00:37:57;;;;;;;12.10;1.30;;;3.90;99.90;;;;;;4977750;28;20459;-78
2021/01/26 00:40:24;;;;;;;16.13;1.63;;;3.90;99.90;;;;;;4962346;28;20061;-78
2021/01/26 00:42:50;;;;;;;8.80;1.73;;;3.90;99.90;;;;;;4983880;28;20445;-77
2021/01/26 00:45:18;;;;;;;10.18;1.33;;;3.90;99.90;;;;;;4984005;28;20488;-78
2021/01/26 00:47:44;;;;;;;17.38;1.90;;;3.90;99.90;;;;;;4981033;28;20141;-78
2021/01/26 00:50:11;;;;;;;10.00;1.50;;;3.90;99.90;;;;;;4982316;28;20055;-78
2021/01/26 00:52:38;;;;;;;8.57;1.50;;;4.00;99.90;;;;;;4981986;28;20537;-78
2021/01/26 00:55:05;;;;;;;4.70;0.68;;;4.00;99.90;;;;;;5000074;28;20046;-78
2021/01/26 00:57:32;;;;;;;8.90;1.15;;;3.90;99.90;;;;;;4994511;28;20108;-78
2021/01/26 00:59:59;;;;;;;4.93;0.90;;;4.00;99.90;;;;;;4979651;28;20046;-77
2021/01/26 01:02:25;;;;;;;8.63;0.52;;;3.90;99.90;;;;;;4977736;28;20052;-77
2021/01/26 01:04:51;;;;;;;8.02;1.05;;;3.90;99.90;;;;;;4977561;28;20141;-78
2021/01/26 01:07:18;;;;;;;5.72;0.70;;;3.90;99.90;;;;;;4977467;28;20046;-78
2021/01/26 01:09:45;;;;;;;12.52;1.63;;;3.90;99.90;;;;;;4975399;28;20050;-78
2021/01/26 01:12:12;;;;;;;9.27;1.00;;;3.80;99.90;;;;;;4980381;28;20046;-77
2021/01/26 01:14:39;;;;;;;5.35;1.00;;;3.80;99.90;;;;;;4982562;28;20050;-77
2021/01/26 01:17:07;;;;;;;12.20;1.33;;;3.80;99.90;;;;;;4978974;28;20065;-78
2021/01/26 01:19:34;;;;;;;7.35;0.90;;;3.70;99.90;;;;;;4989508;28;21509;-77
2021/01/26 01:22:01;;;;;;;10.70;1.45;;;3.70;99.90;;;;;;4983993;28;20050;-78
2021/01/26 01:24:27;;;;;;;8.85;0.95;;;3.70;99.90;;;;;;4978181;28;20072;-77
2021/01/26 01:26:53;;;;;;;3.45;0.80;;;3.60;99.90;;;;;;4977008;28;20054;-78
2021/01/26 01:29:19;;;;;;;9.90;1.05;;;3.60;99.90;;;;;;4970813;28;20054;-78
2021/01/26 01:31:45;;;;;;;4.75;0.80;;;3.60;99.90;;;;;;4974005;28;20118;-78
2021/01/26 01:34:12;;;;;;;3.25;1.00;;;3.60;99.90;;;;;;4968933;28;20144;-77
2021/01/26 01:36:38;;;;;;;11.15;1.48;;;3.60;99.90;;;;;;4978446;28;20061;-78
2021/01/26 01:39:07;;;;;;;8.32;1.17;;;3.60;99.90;;;;;;4980059;28;20053;-77
2021/01/26 01:41:36;;;;;;;9.15;1.17;;;3.50;99.90;;;;;;4992677;28;20073;-78
2021/01/26 01:44:04;;;;;;;7.28;0.95;;;3.50;99.90;;;;;;4978712;28;20054;-78
2021/01/26 01:46:34;;;;;;;6.38;0.80;;;3.60;99.90;;;;;;4982710;28;20517;-77
2021/01/26 01:49:04;;;;;;;9.40;0.90;;;3.60;99.90;;;;;;4976247;28;20098;-77
2021/01/26 01:51:36;;;;;;;8.45;1.20;;;3.60;99.90;;;;;;4980506;28;20073;-78
2021/01/26 01:54:12;;;;;;;9.02;1.58;;;3.50;99.90;;;;;;4980102;28;20042;-78
2021/01/26 01:57:00;;;;;;;12.30;1.88;;;3.60;99.90;;;;;;4976221;28;20060;-78
2021/01/26 01:59:33;;;;;;;6.88;1.13;;;3.60;99.90;;;;;;4972241;28;20469;-78
2021/01/26 02:02:02;;;;;;;5.05;0.50;;;3.60;99.90;;;;;;4980713;28;20042;-77
2021/01/26 02:04:30;;;;;;;7.47;1.15;;;3.50;99.90;;;;;;4978210;28;20511;-77
2021/01/26 02:06:57;;;;;;;5.80;1.20;;;3.60;99.90;;;;;;4983086;28;20488;-77
2021/01/26 02:09:33;;;;;;;12.73;1.75;;;3.50;99.90;;;;;;4975893;28;20057;-77
2021/01/26 02:11:59;;;;;;;7.53;1.40;;;3.50;99.90;;;;;;4980429;28;20050;-78
2021/01/26 02:14:30;;;;;;;13.43;1.15;;;3.40;99.90;;;;;;4979545;28;21979;-78
2021/01/26 02:17:08;;;;;;;8.30;1.02;;;3.40;99.90;;;;;;4975261;28;20492;-78
2021/01/26 02:20:23;;;;;;;7.10;0.95;;;3.40;99.90;;;;;;4979284;28;20457;-78
2021/01/26 02:23:23;;;;;;;15.00;2.00;;;3.30;99.90;;;;;;4973242;28;20413;-77
2021/01/26 02:26:12;;;;;;;13.05;1.13;;;3.30;99.90;;;;;;4995736;28;20492;-78
2021/01/26 02:29:07;;;;;;;12.60;1.50;;;3.40;99.90;;;;;;4974175;28;20463;-77
2021/01/26 02:32:06;;;;;;;12.80;0.90;;;3.30;99.90;;;;;;4980259;28;20046;-78
2021/01/26 02:34:39;;;;;;;13.07;1.25;;;3.30;99.90;;;;;;4976618;28;20508;-78
2021/01/26 02:37:35;;;;;;;10.10;1.65;;;3.30;99.90;;;;;;4976534;28;20042;-77
2021/01/26 02:40:15;;;;;;;5.53;1.45;;;3.30;99.90;;;;;;4981321;28;20054;-77
2021/01/26 02:43:09;;;;;;;16.33;1.67;;;3.30;99.90;;;;;;4978244;28;20046;-78
2021/01/26 02:45:38;;;;;;;9.57;1.48;;;3.30;99.90;;;;;;4976261;28;20045;-78
2021/01/26 02:48:16;;;;;;;15.60;2.30;;;3.30;99.90;;;;;;4980709;28;20050;-77
2021/01/26 02:51:17;;;;;;;16.05;1.42;;;3.30;99.90;;;;;;4976281;28;20478;-77
2021/01/26 02:54:05;;;;;;;16.13;2.30;;;3.30;99.90;;;;;;4993148;28;20050;-78
2021/01/26 02:56:51;;;;;;;13.73;1.50;;;3.30;99.90;;;;;;4979881;28;20056;-78
2021/01/26 02:59:38;;;;;;;22.65;2.35;;;3.40;99.90;;;;;;4977642;28;20616;-78
2021/01/26 03:02:17;;;;;;;18.13;2.05;;;3.50;99.90;;;;;;4975240;28;20049;-78
2021/01/26 03:04:58;;;;;;;13.80;2.13;;;3.50;99.90;;;;;;4979433;28;20073;-77
2021/01/26 03:07:29;;;;;;;14.70;2.22;;;3.60;99.90;;;;;;4977109;28;20050;-78
2021/01/26 03:10:06;;;;;;;12.98;1.60;;;3.70;99.90;;;;;;4976766;28;20141;-77
2021/01/26 03:12:35;;;;;;;6.53;0.70;;;3.70;99.90;;;;;;4978481;28;20042;-77
2021/01/26 03:15:13;;;;;;;11.80;2.92;;;3.70;99.90;;;;;;4977949;28;20046;-77
2021/01/26 03:17:55;;;;;;;13.43;1.15;;;3.70;99.90;;;;;;4975814;28;20185;-77
2021/01/26 03:20:33;;;;;;;12.73;1.15;;;3.70;99.90;;;;;;4980650;28;20081;-77
2021/01/26 03:23:06;;;;;;;11.57;1.60;;;3.60;99.90;;;;;;4972154;28;20074;-77
2021/01/26 03:25:36;;;;;;;10.07;1.75;;;3.60;99.90;;;;;;4970183;28;20058;-78
2021/01/26 03:28:07;;;;;;;9.98;1.67;;;3.60;99.90;;;;;;4976632;28;20057;-77
2021/01/26 03:30:37;;;;;;;15.27;1.52;;;3.70;99.90;;;;;;4993339;28;20552;-77
2021/01/26 03:33:21;;;;;;;12.30;1.35;;;3.70;99.90;;;;;;4974199;28;20133;-78
2021/01/26 03:35:48;;;;;;;4.22;0.93;;;3.80;99.90;;;;;;4977289;28;20803;-78
2021/01/26 03:38:19;;;;;;;6.95;1.60;;;3.80;99.90;;;;;;4975796;28;20570;-78
2021/01/26 03:40:52;;;;;;;15.82;2.10;;;3.80;99.90;;;;;;4992824;28;20935;-78
2021/01/26 03:43:19;;;;;;;11.65;2.22;;;3.80;99.90;;;;;;4975574;28;20094;-78
2021/01/26 03:45:52;;;;;;;19.88;1.63;;;3.90;99.90;;;;;;4981531;28;20056;-77
2021/01/26 03:48:26;;;;;;;8.10;1.83;;;3.90;99.90;;;;;;4976867;28;20064;-77
2021/01/26 03:51:11;;;;;;;12.13;1.15;;;3.90;99.90;;;;;;4974751;28;20050;-77
2021/01/26 03:53:37;;;;;;;8.07;0.82;;;3.90;99.90;;;;;;4992348;28;20042;-78
2021/01/26 03:56:17;;;;;;;5.00;0.73;;;3.80;99.90;;;;;;4979799;28;20072;-77
2021/01/26 03:59:08;;;;;;;9.65;1.73;;;3.80;99.90;;;;;;4977825;28;20069;-78
2021/01/26 04:01:44;;;;;;;7.38;0.98;;;3.80;99.90;;;;;;4969240;28;20071;-78
2021/01/26 04:04:45;;;;;;;17.10;1.63;;;3.70;99.90;;;;;;4966852;28;20051;-77
2021/01/26 04:07:20;;;;;;;12.45;1.02;;;3.70;99.90;;;;;;4976271;28;20061;-78
2021/01/26 04:10:02;;;;;;;12.02;1.15;;;3.70;99.90;;;;;;4978081;28;20061;-77
2021/01/26 04:12:33;;;;;;;10.73;2.08;;;3.60;99.90;;;;;;4977273;28;20046;-78
2021/01/26 04:15:09;;;;;;;6.85;0.88;;;3.50;99.90;;;;;;4977044;28;20057;-78
2021/01/26 04:17:40;;;;;;;4.55;0.70;;;3.50;99.90;;;;;;4978463;28;20057;-78
2021/01/26 04:20:18;;;;;;;7.28;0.80;;;3.50;99.90;;;;;;4981357;28;20050;-77
2021/01/26 04:22:44;;;;;;;4.93;0.65;;;3.40;99.90;;;;;;4978504;28;20272;-78
2021/01/26 04:25:28;;;;;;;5.75;0.88;;;3.40;99.90;;;;;;4981613;28;20054;-78
2021/01/26 04:27:55;;;;;;;11.02;0.68;;;3.40;99.90;;;;;;4976558;28;20395;-77
2021/01/26 04:30:21;;;;;;;15.77;1.90;;;3.50;99.90;;;;;;4975757;28;20665;-77
2021/01/26 04:32:58;;;;;;;3.47;0.60;;;3.50;99.90;;;;;;4975005;28;20535;-78
2021/01/26 04:35:25;;;;;;;2.40;0.50;;;3.60;99.90;;;;;;4979002;28;20553;-78
2021/01/26 04:37:53;;;;;;;6.53;0.88;;;3.60;99.90;;;;;;4980647;28;20065;-78
2021/01/26 04:40:21;;;;;;;4.70;1.05;;;3.60;99.90;;;;;;4981129;28;20065;-78
2021/01/26 04:42:55;;;;;;;4.28;0.57;;;3.70;99.90;;;;;;4981382;28;20137;-77
2021/01/26 04:45:42;;;;;;;3.10;0.70;;;3.70;99.90;;;;;;4977216;28;20058;-77
2021/01/26 04:48:14;;;;;;;8.93;1.20;;;3.80;99.90;;;;;;4971259;28;20373;-77
2021/01/26 04:51:07;;;;;;;9.30;1.05;;;3.80;99.90;;;;;;4979016;28;20706;-76
2021/01/26 04:53:42;;;;;;;4.50;0.63;;;3.80;99.90;;;;;;4979882;28;20061;-77
2021/01/26 04:56:30;;;;;;;8.38;1.13;;;3.80;99.90;;;;;;4979748;28;20057;-77
2021/01/26 04:59:28;;;;;;;4.97;0.85;;;3.80;99.90;;;;;;4979001;28;20046;-77
2021/01/26 05:02:28;;;;;;;3.30;0.68;;;3.90;99.90;;;;;;4975835;28;20052;-77
2021/01/26 05:05:03;;;;;;;3.90;0.60;;;3.90;99.90;;;;;;4982050;28;20061;-77
2021/01/26 05:07:36;;;;;;;8.25;1.08;;;3.90;99.90;;;;;;4979718;28;20486;-77
2021/01/26 05:10:05;;;;;;;8.50;1.15;;;3.90;99.90;;;;;;4975928;28;20494;-76
2021/01/26 05:13:04;;;;;;;6.78;0.50;;;3.90;99.90;;;;;;4977325;28;20050;-76
2021/01/26 05:15:37;;;;;;;12.27;1.27;;;3.90;99.90;;;;;;4966825;28;20158;-78
2021/01/26 05:18:11;;;;;;;4.88;0.77;;;3.90;99.90;;;;;;4976062;28;20050;-76
2021/01/26 05:20:44;;;;;;;8.95;0.60;;;3.90;99.90;;;;;;4977484;28;20054;-76
2021/01/26 05:23:20;;;;;;;7.80;1.30;;;3.90;99.90;;;;;;4978602;28;20057;-76
2021/01/26 05:26:02;;;;;;;9.70;0.93;;;3.90;99.90;;;;;;4976830;28;20053;-76
2021/01/26 05:28:28;;;;;;;8.77;0.63;;;3.90;99.90;;;;;;4974611;28;20100;-76
2021/01/26 05:30:57;;;;;;;6.10;0.70;;;3.90;99.90;;;;;;4977277;28;20145;-76
2021/01/26 05:33:23;;;;;;;16.23;0.95;;;3.90;99.90;;;;;;4973784;28;20413;-76
2021/01/26 05:35:56;;;;;;;2.70;0.77;;;3.90;99.90;;;;;;4978035;28;20120;-77
2021/01/26 05:38:22;;;;;;;5.13;0.43;;;3.90;99.90;;;;;;4974099;28;20413;-77
2021/01/26 05:41:04;;;;;;;4.25;0.77;;;3.90;99.90;;;;;;4979488;28;22403;-77
2021/01/26 05:43:33;;;;;;;11.50;0.85;;;4.00;99.90;;;;;;4980131;28;20077;-77
2021/01/26 05:46:02;;;;;;;6.57;0.65;;;3.90;99.90;;;;;;4976624;28;20532;-79
2021/01/26 05:48:46;;;;;;;4.75;0.52;;;3.90;99.90;;;;;;4976606;28;20058;-76
2021/01/26 05:51:25;;;;;;;7.10;0.88;;;3.90;99.90;;;;;;4979512;28;20129;-77
2021/01/26 05:53:56;;;;;;;6.45;0.60;;;3.90;99.90;;;;;;4978126;28;20436;-76
2021/01/26 05:56:23;;;;;;;2.20;0.32;;;3.80;99.90;;;;;;4978478;28;20046;-76
2021/01/26 05:58:49;;;;;;;7.18;0.90;;;3.70;99.90;;;;;;4975656;28;20081;-77
2021/01/26 06:01:29;;;;;;;4.75;0.63;;;3.70;99.90;;;;;;4974511;28;20057;-77
2021/01/26 06:04:06;;;;;;;3.58;0.82;;;3.60;99.90;;;;;;4981580;28;20054;-78
2021/01/26 06:07:00;;;;;;;5.90;0.60;;;3.70;99.90;;;;;;4979316;28;20822;-77
2021/01/26 06:09:34;;;;;;;5.82;0.63;;;3.60;99.90;;;;;;4979968;28;20553;-77
2021/01/26 06:12:10;;;;;;;10.38;1.45;;;3.70;99.90;;;;;;4975841;28;20050;-77
2021/01/26 06:14:38;;;;;;;5.45;0.70;;;3.70;99.90;;;;;;4980612;28;20042;-77
2021/01/26 06:17:10;;;;;;;5.22;0.68;;;3.80;99.90;;;;;;4974020;28;20617;-77
2021/01/26 06:19:37;;;;;;;12.40;0.85;;;3.70;99.90;;;;;;4978600;28;20054;-77
2021/01/26 06:22:04;;;;;;;5.68;0.47;;;3.80;99.90;;;;;;4975462;28;20405;-77
2021/01/26 06:24:34;;;;;;;7.55;0.98;;;3.80;99.90;;;;;;4982444;28;20557;-77
2021/01/26 06:27:28;;;;;;;2.50;0.90;;;3.80;99.90;;;;;;4995294;28;20054;-77
2021/01/26 06:30:18;;;;;;;11.50;0.93;;;3.80;99.90;;;;;;4974172;28;20060;-77
2021/01/26 06:33:04;;;;;;;5.72;0.60;;;3.80;99.90;;;;;;4993294;28;20153;-77
2021/01/26 06:35:59;;;;;;;6.28;0.80;;;3.80;99.90;;;;;;4971533;28;20105;-77
2021/01/26 06:38:49;;;;;;;12.02;1.95;;;3.80;99.90;;;;;;4975622;28;20077;-77
2021/01/26 06:41:41;;;;;;;8.55;0.82;;;3.80;99.90;;;;;;4975605;28;20046;-77
2021/01/26 06:44:27;;;;;;;6.65;0.60;;;3.80;99.90;;;;;;4979194;28;20497;-77
2021/01/26 06:47:16;;;;;;;7.28;0.95;;;3.70;99.90;;;;;;4977893;28;20489;-77
2021/01/26 06:50:02;;;;;;;9.32;1.13;;;3.70;99.90;;;;;;4976259;28;20058;-77
2021/01/26 06:52:36;;;;;;;13.00;1.70;;;3.70;99.90;;;;;;4975707;28;20077;-77
2021/01/26 06:55:11;;;;;;;3.05;0.52;;;3.70;99.90;;;;;;4975983;28;20129;-77
2021/01/26 06:57:56;;;;;;;3.42;0.60;;;3.70;99.90;;;;;;4979962;28;20047;-77
2021/01/26 07:00:59;;;;;;;7.72;0.70;;;3.60;99.90;;;;;;4974493;28;20128;-76
2021/01/26 07:03:31;;;;;;;8.85;0.70;;;3.50;99.90;;;;;;4967421;28;20286;-77
2021/01/26 07:06:31;;;;;;;12.43;1.45;;;3.40;99.90;;;;;;4968989;28;20054;-77
2021/01/26 07:09:06;;;;;;;0.98;0.40;;;3.30;99.90;;;;;;4965903;28;20047;-77
2021/01/26 07:11:48;;;;;;;8.20;0.85;;;3.20;99.90;;;;;;4970224;28;21444;-77
2021/01/26 07:14:48;;;;;;;12.82;1.27;;;3.10;99.90;;;;;;4971134;28;20050;-77
2021/01/26 07:17:33;;;;;;;3.45;0.70;;;3.10;99.90;;;;;;4964877;28;20496;-77
2021/01/26 07:20:32;;;;;;;7.75;0.70;;;3.10;99.90;;;;;;4962491;28;20605;-77
2021/01/26 07:23:24;;;;;;;10.05;0.77;;;3.20;99.90;;;;;;4969160;28;20042;-77
2021/01/26 07:26:14;;;;;;;10.18;0.85;;;3.20;99.90;;;;;;4969927;28;20054;-78
2021/01/26 07:28:59;;;;;;;8.52;0.82;;;3.20;99.90;;;;;;4965800;28;20395;-77
2021/01/26 07:31:45;;;;;;;5.00;0.70;;;3.30;99.90;;;;;;4973858;28;20050;-77
2021/01/26 07:34:26;;;;;;;3.03;0.60;;;3.30;99.90;;;;;;4974778;28;20054;-77
2021/01/26 07:37:01;;;;;;;2.80;0.77;;;3.40;99.90;;;;;;4975138;28;20056;-78
2021/01/26 07:39:49;;;;;;;6.60;1.00;;;3.40;99.90;;;;;;4980848;28;20050;-78
2021/01/26 07:42:25;;;;;;;5.90;0.82;;;3.50;99.90;;;;;;4996462;28;20383;-78
2021/01/26 07:44:59;;;;;;;5.65;0.65;;;3.50;99.90;;;;;;4980958;28;20050;-78
2021/01/26 07:47:48;;;;;;;12.52;1.20;;;3.50;99.90;;;;;;4974584;28;20469;-78
2021/01/26 07:50:26;;;;;;;5.57;1.13;;;3.50;99.90;;;;;;4972416;28;20058;-78
2021/01/26 07:53:01;;;;;;;11.30;1.15;;;3.50;99.90;;;;;;4996577;28;20093;-79
2021/01/26 07:56:06;;;;;;;7.22;2.15;;;3.50;99.90;;;;;;4983557;28;20054;-78
2021/01/26 07:58:34;;;;;;;6.22;1.08;;;3.50;99.90;;;;;;4976355;28;20068;-78
2021/01/26 08:01:01;;;;;;;10.32;1.48;;;3.60;99.90;;;;;;4981662;28;20060;-78
2021/01/26 08:03:29;;;;;;;14.07;1.95;;;3.60;99.90;;;;;;4975928;28;20058;-77
2021/01/26 08:05:59;;;;;;;4.82;1.00;;;3.60;99.90;;;;;;4978627;28;20110;-76
2021/01/26 08:08:36;;;;;;;5.38;1.42;;;3.60;99.90;;;;;;4974863;28;20051;-76
2021/01/26 08:11:21;;;;;;;3.63;1.75;;;3.60;99.90;;;;;;4973571;28;20097;-77
2021/01/26 08:13:56;;;;;;;5.70;0.80;;;3.50;99.90;;;;;;4974472;28;20146;-77
2021/01/26 08:16:33;;;;;;;5.07;1.30;;;3.50;99.90;;;;;;4974846;28;20046;-77
2021/01/26 08:19:02;;;;;;;3.05;1.63;;;3.40;99.90;;;;;;4974484;28;20073;-77
2021/01/26 08:21:39;;;;;;;3.60;1.00;;;3.30;99.90;;;;;;4978284;28;20050;-77
2021/01/26 08:24:11;;;;;;;4.10;1.00;;;3.30;99.90;;;;;;4973091;28;20088;-76
2021/01/26 08:26:38;;;;;;;4.43;1.65;;;3.30;99.90;;;;;;4956398;28;20058;-76
2021/01/26 08:29:04;;;;;;;1.80;0.90;;;3.30;99.90;;;;;;4967311;28;20065;-76
2021/01/26 08:31:38;;;;;;;2.42;1.23;;;3.30;99.90;;;;;;4967488;28;20046;-75
2021/01/26 08:34:25;;;;;;;9.32;2.00;;;3.30;99.90;;;;;;4976153;28;20494;-75
2021/01/26 08:37:09;;;;;;;6.82;1.55;;;3.30;99.90;;;;;;4975523;28;20068;-75
2021/01/26 08:39:44;;;;;;;5.95;1.45;;;3.30;99.90;;;;;;4988891;28;20104;-77
2021/01/26 08:42:31;;;;;;;8.73;1.20;;;3.30;99.90;;;;;;4975710;28;20046;-75
2021/01/26 08:44:58;;;;;;;10.68;1.33;;;3.30;99.90;;;;;;4973648;28;20051;-76
2021/01/26 08:47:45;;;;;;;3.75;1.20;;;3.30;99.90;;;;;;4979039;28;20124;-77
2021/01/26 08:50:42;;;;;;;6.13;1.35;;;3.30;99.90;;;;;;4907278;28;20063;-79
2021/01/26 08:56:12;;;;;;;3.83;1.30;;;3.40;99.90;;;;;;4998773;23;20080;-87
2021/01/26 08:58:53;;;;;;;8.88;1.98;;;3.50;99.90;;;;;;4968590;28;20419;-87
2021/01/26 09:01:22;;;;;;;12.88;5.25;;;3.60;99.90;;;;;;4976283;28;20086;-87
2021/01/26 09:03:53;;;;;;;8.60;2.80;;;3.60;99.90;;;;;;4972125;28;20387;-87
2021/01/26 09:06:38;;;;;;;4.05;2.13;;;3.70;99.90;;;;;;4991069;28;20057;-87
2021/01/26 09:09:07;;;;;;;6.00;2.08;;;3.80;99.90;;;;;;4980925;28;20137;-87
2021/01/26 09:11:43;;;;;;;3.88;1.80;;;3.90;99.90;;;;;;4976846;28;20081;-87
2021/01/26 09:14:19;;;;;;;3.17;1.40;;;3.90;99.90;;;;;;4988883;28;20084;-87
2021/01/26 09:16:46;;;;;;;5.75;2.97;;;4.00;99.90;;;;;;4975498;28;20054;-87
2021/01/26 09:19:24;;;;;;;3.65;2.95;;;4.10;99.90;;;;;;4987310;28;20083;-86
2021/01/26 09:22:03;;;;;;;4.78;2.08;;;4.10;99.90;;;;;;4985382;28;20062;-85
2021/01/26 09:24:30;;;;;;;3.65;1.70;;;4.20;99.90;;;;;;4949497;28;20074;-85
2021/01/26 09:26:57;;;;;;;3.58;1.30;;;4.30;99.90;;;;;;4939975;28;20061;-86
2021/01/26 09:29:28;;;;;;;5.47;1.20;;;4.40;99.90;;;;;;4967410;28;20141;-87
2021/01/26 09:31:57;;;;;;;4.18;1.77;;;4.50;99.90;;;;;;4971806;28;20065;-87
2021/01/26 09:34:28;;;;;;;5.75;1.15;;;4.60;99.90;;;;;;4947812;28;20055;-86
2021/01/26 09:37:22;;;;;;;6.80;1.25;;;4.80;99.90;;;;;;4970816;28;20056;-86
2021/01/26 09:39:48;;;;;;;5.43;1.30;;;4.90;99.90;;;;;;4995971;28;20101;-87
2021/01/26 09:42:23;;;;;;;5.22;1.70;;;5.10;99.90;;;;;;4977229;28;20451;-87
2021/01/26 09:45:00;;;;;;;3.40;1.40;;;5.30;99.90;;;;;;4976225;28;20375;-87
2021/01/26 09:47:28;;;;;;;4.43;1.00;;;5.50;99.90;;;;;;4995344;28;20129;-87
2021/01/26 09:50:09;;;;;;;2.85;0.93;;;5.70;99.90;;;;;;4982292;28;20094;-87
2021/01/26 09:52:36;;;;;;;6.88;1.08;;;6.00;99.90;;;;;;4989702;28;20116;-87
2021/01/26 09:55:12;;;;;;;6.57;1.17;;;6.50;99.90;;;;;;4980454;28;20127;-87
2021/01/26 09:57:40;;;;;;;3.08;1.65;;;6.80;99.90;;;;;;4974332;28;20132;-87
2021/01/26 10:00:15;;;;;;;3.03;1.75;;;6.90;99.90;;;;;;4971411;28;20475;-87
2021/01/26 10:02:42;;;;;;;4.95;1.05;;;6.80;99.90;;;;;;4974250;28;20161;-88
2021/01/26 10:05:14;;;;;;;7.22;1.42;;;6.60;99.90;;;;;;4976958;28;20536;-87
2021/01/26 10:07:40;;;;;;;8.32;1.80;;;6.50;99.90;;;;;;4978783;28;20129;-87
2021/01/26 10:10:20;;;;;;;3.08;0.95;;;6.50;99.90;;;;;;4981226;28;20607;-87
2021/01/26 10:12:47;;;;;;;3.85;0.88;;;6.40;99.90;;;;;;4993351;28;20046;-87
2021/01/26 10:15:30;;;;;;;9.48;1.33;;;6.40;99.90;;;;;;4979140;28;20053;-88
2021/01/26 10:18:02;;;;;;;4.57;0.80;;;6.40;99.90;;;;;;4977314;28;20046;-87
2021/01/26 10:20:36;;;;;;;8.85;1.10;;;6.40;99.90;;;;;;4964774;28;20042;-88
2021/01/26 10:23:07;;;;;;;5.78;1.90;;;6.30;99.90;;;;;;4977135;28;20130;-88
2021/01/26 10:25:38;;;;;;;7.88;0.90;;;6.40;99.90;;;;;;4979172;28;20076;-88
2021/01/26 10:28:14;;;;;;;7.63;1.15;;;6.50;99.90;;;;;;4977374;28;20449;-87
2021/01/26 10:30:45;;;;;;;8.45;1.98;;;6.50;99.90;;;;;;4974252;28;20495;-87
2021/01/26 10:33:33;;;;;;;10.85;1.27;;;6.60;99.90;;;;;;4974676;28;20491;-87
2021/01/26 10:36:24;;;;;;;8.52;1.00;;;6.70;99.90;;;;;;4976854;28;20108;-87
2021/01/26 10:38:52;;;;;;;9.73;1.20;;;6.80;99.90;;;;;;4978035;28;20133;-88
2021/01/26 10:41:28;;;;;;;2.30;0.65;;;6.80;99.90;;;;;;4969871;28;22431;-88
2021/01/26 10:44:09;;;;;;;11.73;1.33;;;6.80;99.90;;;;;;4992786;28;20050;-88
2021/01/26 10:46:41;;;;;;;6.95;1.00;;;6.70;99.90;;;;;;4973013;28;20034;-88
2021/01/26 10:49:17;;;;;;;6.70;1.00;;;6.80;99.90;;;;;;4975135;28;21702;-88
2021/01/26 10:51:45;;;;;;;5.38;1.05;;;6.80;99.90;;;;;;4968166;28;20061;-88
2021/01/26 10:54:11;;;;;;;4.32;0.80;;;6.90;99.90;;;;;;4977100;28;20093;-88
2021/01/26 10:56:38;;;;;;;8.05;1.25;;;7.00;99.90;;;;;;4973472;28;20544;-89
2021/01/26 10:59:04;;;;;;;7.03;0.82;;;7.00;99.90;;;;;;4973328;28;20050;-89
2021/01/26 11:01:31;;;;;;;5.43;1.20;;;6.90;99.90;;;;;;4975018;28;20045;-90
2021/01/26 11:04:04;;;;;;;8.98;0.90;;;6.90;99.90;;;;;;4957682;28;20134;-90
2021/01/26 11:06:32;;;;;;;7.68;0.80;;;6.90;99.90;;;;;;4961712;28;20050;-89
2021/01/26 11:08:58;;;;;;;12.00;1.60;;;6.90;99.90;;;;;;4946532;28;20050;-88
2021/01/26 11:11:29;;;;;;;7.35;0.90;;;6.90;99.90;;;;;;4967174;28;20050;-88
2021/01/26 11:13:57;;;;;;;6.68;0.75;;;6.90;99.90;;;;;;4949449;28;20070;-88
2021/01/26 11:16:25;;;;;;;3.80;1.27;;;7.00;99.90;;;;;;4954822;28;20138;-87
2021/01/26 11:18:53;;;;;;;2.45;0.95;;;7.00;99.90;;;;;;4956408;28;20570;-87
2021/01/26 11:21:20;;;;;;;2.90;0.70;;;7.00;99.90;;;;;;4959411;28;20055;-87
2021/01/26 11:23:47;;;;;;;5.43;0.88;;;7.00;99.90;;;;;;4971290;28;20511;-88
2021/01/26 11:26:19;;;;;;;6.10;1.35;;;7.10;99.90;;;;;;4959798;28;20047;-87
2021/01/26 11:28:46;;;;;;;8.98;2.22;;;7.10;99.90;;;;;;4971290;28;20055;-87
2021/01/26 11:31:14;;;;;;;5.68;1.00;;;7.10;99.90;;;;;;4954674;28;20487;-87
2021/01/26 11:33:42;;;;;;;5.15;1.55;;;7.10;99.90;;;;;;4972168;28;20054;-87
2021/01/26 11:36:08;;;;;;;6.93;0.80;;;7.10;99.90;;;;;;4971175;28;20062;-88
2021/01/26 11:38:35;;;;;;;6.47;1.10;;;7.10;99.90;;;;;;4975362;28;20032;-87
2021/01/26 11:41:04;;;;;;;6.40;1.10;;;7.10;99.90;;;;;;4979205;28;20050;-87
2021/01/26 11:43:32;;;;;;;2.50;0.75;;;7.10;99.90;;;;;;4973360;28;20608;-87
2021/01/26 11:45:59;;;;;;;2.25;1.17;;;7.10;99.90;;;;;;4972363;28;20054;-87
2021/01/26 11:48:26;;;;;;;4.57;0.80;;;7.00;99.90;;;;;;4975020;28;20486;-87
2021/01/26 11:50:53;;;;;;;8.90;1.38;;;6.90;99.90;;;;;;4980165;28;20403;-87
2021/01/26 11:53:21;;;;;;;2.03;0.73;;;6.80;99.90;;;;;;4978570;28;20046;-87
2021/01/26 11:55:49;;;;;;;1.83;0.50;;;6.80;99.90;;;;;;4962128;28;20058;-87
2021/01/26 11:58:19;;;;;;;2.92;0.70;;;6.80;99.90;;;;;;4972454;28;20050;-87
2021/01/26 12:00:56;;;;;;;6.07;1.30;;;6.90;99.90;;;;;;4929692;28;20066;-86
2021/01/26 12:07:42;;;;;;;;;;;;;;;;;;;;;
2021/01/26 12:14:04;;;;;;;2.67;0.50;;;7.30;99.90;;;;;;4864534;29;19930;-88
2021/01/26 12:20:12;;;;;;;1.65;0.38;;;7.60;99.90;;;;;;4973336;28;20046;-86
2021/01/26 12:22:40;;;;;;;3.28;0.82;;;7.70;99.90;;;;;;4949676;28;20073;-87
2021/01/26 12:25:14;;;;;;;4.68;0.57;;;7.70;99.90;;;;;;4949359;28;20060;-87
2021/01/26 12:27:40;;;;;;;4.40;0.40;;;7.80;99.90;;;;;;4944923;28;20050;-88
2021/01/26 12:30:33;;;;;;;5.75;0.50;;;7.90;99.90;;;;;;4933762;28;20063;-89
2021/01/26 12:33:10;;;;;;;3.15;0.40;;;8.00;99.90;;;;;;4980100;28;20061;-90
2021/01/26 12:35:38;;;;;;;2.05;0.40;;;8.20;99.90;;;;;;4896705;28;20073;-89
2021/01/26 12:38:06;;;;;;;3.92;0.50;;;8.30;99.90;;;;;;4966090;28;20046;-86
2021/01/26 12:40:32;;;;;;;4.60;1.30;;;8.40;99.90;;;;;;4983864;28;20459;-90
2021/01/26 12:43:01;;;;;;;2.33;0.52;;;8.50;99.90;;;;;;4971440;28;20117;-89
2021/01/26 12:45:30;;;;;;;3.95;0.47;;;8.60;99.90;;;;;;4969795;28;20042;-89
2021/01/26 12:47:59;;;;;;;1.33;0.68;;;8.70;99.90;;;;;;4988859;28;20046;-90
2021/01/26 12:50:32;;;;;;;1.50;0.35;;;8.80;99.90;;;;;;4977449;28;20057;-91
2021/01/26 12:56:22;;;;;;;4.53;0.60;;;8.80;99.90;;;;;;4904818;28;20126;-90
2021/01/26 12:59:19;;;;;;;5.88;0.60;;;8.80;99.90;;;;;;4866099;28;20594;-90
2021/01/26 13:01:50;;;;;;;3.28;0.30;;;8.90;99.90;;;;;;4926292;28;20055;-88
2021/01/26 13:04:20;;;;;;;4.65;0.32;;;9.00;99.90;;;;;;4924226;28;21421;-88
2021/01/26 13:06:47;;;;;;;3.30;0.75;;;9.10;99.90;;;;;;4922048;28;20109;-89
2021/01/26 13:09:21;;;;;;;4.38;0.68;;;9.40;99.90;;;;;;4935753;28;20074;-90
2021/01/26 13:11:52;;;;;;;1.98;0.50;;;9.50;99.90;;;;;;4877317;28;20532;-90
2021/01/26 13:14:45;;;;;;;1.52;0.47;;;9.50;99.90;;;;;;4926394;28;20054;-89
2021/01/26 13:17:20;;;;;;;10.13;0.70;;;9.70;99.90;;;;;;4895440;28;20061;-87
2021/01/26 13:20:03;;;;;;;4.60;0.73;;;10.00;99.90;;;;;;4863789;28;20059;-90
2021/01/26 13:22:30;;;;;;;2.10;0.52;;;10.50;99.90;;;;;;4905647;28;20058;-89
2021/01/26 13:25:24;;;;;;;;;;;;;;;;;;;;;
2021/01/26 13:28:09;;;;;;;4.10;0.50;;;11.60;99.90;;;;;;4940104;28;20063;-90
2021/01/26 13:30:44;;;;;;;4.65;0.57;;;11.90;99.60;;;;;;4949944;28;20145;-90
2021/01/26 13:33:12;;;;;;;4.65;1.17;;;11.80;99.90;;;;;;4955805;28;20081;-87
2021/01/26 13:35:38;;;;;;;2.67;0.52;;;11.90;99.60;;;;;;4957478;28;20050;-88
2021/01/26 13:38:07;;;;;;;7.95;0.75;;;11.80;99.50;;;;;;4977841;28;20050;-87
2021/01/26 13:40:34;;;;;;;2.88;0.40;;;11.80;97.70;;;;;;4972402;28;20470;-87
2021/01/26 13:43:00;;;;;;;3.17;0.50;;;11.70;99.90;;;;;;4974260;28;20058;-88
2021/01/26 13:45:29;;;;;;;23.42;2.13;;;12.20;99.90;;;;;;4974514;28;20067;-87
2021/01/26 13:47:57;;;;;;;3.50;0.40;;;12.80;97.60;;;;;;4977955;28;20110;-87
2021/01/26 13:50:59;;;;;;;3.75;0.50;;;12.90;94.20;;;;;;4937577;28;20589;-91
2021/01/26 14:08:51;;;;;;;8.55;0.60;;;10.10;99.90;;;;;;4954260;28;20057;-89